Terminal Aerodrome Forecast
Issued by NWS Wakefield, VA

Home | Current Version | Previous Version | Text Only | Print | Product List | Glossary On
Versions: 1 2 3 4 5 6 7 8 9 10 11 12 13 14 15 16 17 18 19 20 21 22 23 24
867
FTUS41 KAKQ 301456 AAA
TAFRIC
TAF AMD
KRIC 301456Z 3015/0112 08005KT P6SM SCT010 OVC015
     FM302100 10005KT P6SM OVC025
     FM010600 13005KT 4SM -RA BR OVC015=

USA.gov is the U.S. government's official web portal to all federal, state and local government web resources and services.